sensor_id;sensor_type;location;lat;lon;timestamp;temperature;humidity
12408;DHT22;6268;48.188;17.134;2024-03-25T00:03:06;7.70;99.90
12408;DHT22;6268;48.188;17.134;2024-03-25T00:06:25;7.80;99.90
12408;DHT22;6268;48.188;17.134;2024-03-25T00:09:45;7.70;99.90
12408;DHT22;6268;48.188;17.134;2024-03-25T00:13:06;7.80;99.90
12408;DHT22;6268;48.188;17.134;2024-03-25T00:16:25;7.80;99.90
12408;DHT22;6268;48.188;17.134;2024-03-25T00:19:47;7.90;99.90
12408;DHT22;6268;48.188;17.134;2024-03-25T00:23:08;7.90;99.90
12408;DHT22;6268;48.188;17.134;2024-03-25T00:26:28;7.80;99.90
12408;DHT22;6268;48.188;17.134;2024-03-25T00:29:47;7.90;99.90
12408;DHT22;6268;48.188;17.134;2024-03-25T00:33:07;7.90;99.90
12408;DHT22;6268;48.188;17.134;2024-03-25T00:36:28;7.90;99.90
12408;DHT22;6268;48.188;17.134;2024-03-25T00:39:50;7.90;99.90
12408;DHT22;6268;48.188;17.134;2024-03-25T00:43:10;7.90;99.90
12408;DHT22;6268;48.188;17.134;2024-03-25T00:46:29;7.90;99.90
12408;DHT22;6268;48.188;17.134;2024-03-25T00:49:50;7.90;99.90
12408;DHT22;6268;48.188;17.134;2024-03-25T00:53:11;7.90;99.90
12408;DHT22;6268;48.188;17.134;2024-03-25T00:56:31;7.90;99.90
12408;DHT22;6268;48.188;17.134;2024-03-25T00:59:51;7.90;99.90
12408;DHT22;6268;48.188;17.134;2024-03-25T01:03:11;8.00;99.90
12408;DHT22;6268;48.188;17.134;2024-03-25T01:06:31;7.80;99.90
12408;DHT22;6268;48.188;17.134;2024-03-25T01:09:53;7.80;99.90
12408;DHT22;6268;48.188;17.134;2024-03-25T01:13:12;7.70;99.90
12408;DHT22;6268;48.188;17.134;2024-03-25T01:16:33;7.60;99.90
12408;DHT22;6268;48.188;17.134;2024-03-25T01:19:53;7.60;99.90
12408;DHT22;6268;48.188;17.134;2024-03-25T01:23:13;7.50;99.90
12408;DHT22;6268;48.188;17.134;2024-03-25T01:26:35;7.60;99.90
12408;DHT22;6268;48.188;17.134;2024-03-25T01:29:55;7.60;99.90
12408;DHT22;6268;48.188;17.134;2024-03-25T01:33:15;7.60;99.90
12408;DHT22;6268;48.188;17.134;2024-03-25T01:36:35;7.50;99.90
12408;DHT22;6268;48.188;17.134;2024-03-25T01:39:54;7.50;99.90
12408;DHT22;6268;48.188;17.134;2024-03-25T01:43:16;7.50;99.90
12408;DHT22;6268;48.188;17.134;2024-03-25T01:46:36;7.60;99.90
12408;DHT22;6268;48.188;17.134;2024-03-25T01:49:58;7.60;99.90
12408;DHT22;6268;48.188;17.134;2024-03-25T01:53:18;7.60;99.90
12408;DHT22;6268;48.188;17.134;2024-03-25T01:56:44;7.60;99.90
12408;DHT22;6268;48.188;17.134;2024-03-25T02:00:07;7.60;99.90
12408;DHT22;6268;48.188;17.134;2024-03-25T02:03:29;7.60;99.90
12408;DHT22;6268;48.188;17.134;2024-03-25T02:06:50;7.60;99.90
12408;DHT22;6268;48.188;17.134;2024-03-25T02:10:11;7.60;99.90
12408;DHT22;6268;48.188;17.134;2024-03-25T02:13:32;7.60;99.90
12408;DHT22;6268;48.188;17.134;2024-03-25T02:16:55;7.70;99.90
12408;DHT22;6268;48.188;17.134;2024-03-25T02:20:15;7.60;99.90
12408;DHT22;6268;48.188;17.134;2024-03-25T02:23:35;7.60;99.90
12408;DHT22;6268;48.188;17.134;2024-03-25T02:26:59;7.60;99.90
12408;DHT22;6268;48.188;17.134;2024-03-25T02:30:18;7.70;99.90
12408;DHT22;6268;48.188;17.134;2024-03-25T02:33:38;7.80;99.90
12408;DHT22;6268;48.188;17.134;2024-03-25T02:36:58;7.80;99.90
12408;DHT22;6268;48.188;17.134;2024-03-25T02:40:19;7.80;99.90
12408;DHT22;6268;48.188;17.134;2024-03-25T02:43:42;7.70;99.90
12408;DHT22;6268;48.188;17.134;2024-03-25T02:47:03;7.70;99.90
12408;DHT22;6268;48.188;17.134;2024-03-25T02:50:24;7.80;99.90
12408;DHT22;6268;48.188;17.134;2024-03-25T02:53:43;7.70;99.90
12408;DHT22;6268;48.188;17.134;2024-03-25T02:57:04;7.70;99.90
12408;DHT22;6268;48.188;17.134;2024-03-25T03:00:25;7.80;99.90
12408;DHT22;6268;48.188;17.134;2024-03-25T03:03:45;7.80;99.90
12408;DHT22;6268;48.188;17.134;2024-03-25T03:07:05;7.80;99.90
12408;DHT22;6268;48.188;17.134;2024-03-25T03:10:25;7.80;99.90
12408;DHT22;6268;48.188;17.134;2024-03-25T03:13:44;7.90;99.90
12408;DHT22;6268;48.188;17.134;2024-03-25T03:17:06;7.90;99.90
12408;DHT22;6268;48.188;17.134;2024-03-25T03:20:26;7.80;99.90
12408;DHT22;6268;48.188;17.134;2024-03-25T03:23:46;7.70;99.90
12408;DHT22;6268;48.188;17.134;2024-03-25T03:27:05;7.70;99.90
12408;DHT22;6268;48.188;17.134;2024-03-25T03:30:26;7.70;99.90
12408;DHT22;6268;48.188;17.134;2024-03-25T03:33:48;7.60;99.90
12408;DHT22;6268;48.188;17.134;2024-03-25T03:37:09;7.70;99.90
12408;DHT22;6268;48.188;17.134;2024-03-25T03:40:29;7.70;99.90
12408;DHT22;6268;48.188;17.134;2024-03-25T03:43:49;7.70;99.90
12408;DHT22;6268;48.188;17.134;2024-03-25T03:47:09;7.70;99.90
12408;DHT22;6268;48.188;17.134;2024-03-25T03:50:30;7.70;99.90
12408;DHT22;6268;48.188;17.134;2024-03-25T03:53:51;7.60;99.90
12408;DHT22;6268;48.188;17.134;2024-03-25T03:57:11;7.60;99.90
12408;DHT22;6268;48.188;17.134;2024-03-25T04:00:33;7.70;99.90
12408;DHT22;6268;48.188;17.134;2024-03-25T04:03:53;7.70;99.90
12408;DHT22;6268;48.188;17.134;2024-03-25T04:07:15;7.60;99.90
12408;DHT22;6268;48.188;17.134;2024-03-25T04:10:35;7.60;99.90
12408;DHT22;6268;48.188;17.134;2024-03-25T04:13:56;7.60;99.90
12408;DHT22;6268;48.188;17.134;2024-03-25T04:17:21;7.70;99.90
12408;DHT22;6268;48.188;17.134;2024-03-25T04:20:42;7.60;99.90
12408;DHT22;6268;48.188;17.134;2024-03-25T04:24:05;7.60;99.90
12408;DHT22;6268;48.188;17.134;2024-03-25T04:27:25;7.60;99.90
12408;DHT22;6268;48.188;17.134;2024-03-25T04:30:51;7.60;99.90
12408;DHT22;6268;48.188;17.134;2024-03-25T04:34:11;7.70;99.90
12408;DHT22;6268;48.188;17.134;2024-03-25T04:37:33;7.60;99.90
12408;DHT22;6268;48.188;17.134;2024-03-25T04:40:54;7.60;99.90
12408;DHT22;6268;48.188;17.134;2024-03-25T04:44:13;7.60;99.90
12408;DHT22;6268;48.188;17.134;2024-03-25T04:47:33;7.50;99.90
12408;DHT22;6268;48.188;17.134;2024-03-25T04:50:52;7.50;99.90
12408;DHT22;6268;48.188;17.134;2024-03-25T04:54:11;7.50;99.90
12408;DHT22;6268;48.188;17.134;2024-03-25T04:57:32;7.50;99.90
12408;DHT22;6268;48.188;17.134;2024-03-25T05:00:52;7.50;99.90
12408;DHT22;6268;48.188;17.134;2024-03-25T05:04:11;7.50;99.90
12408;DHT22;6268;48.188;17.134;2024-03-25T05:07:31;7.40;99.90
12408;DHT22;6268;48.188;17.134;2024-03-25T05:10:50;7.50;99.90
12408;DHT22;6268;48.188;17.134;2024-03-25T05:14:11;7.50;99.90
12408;DHT22;6268;48.188;17.134;2024-03-25T05:17:31;7.50;99.90
12408;DHT22;6268;48.188;17.134;2024-03-25T05:20:50;7.50;99.90
12408;DHT22;6268;48.188;17.134;2024-03-25T05:24:09;7.50;99.90
12408;DHT22;6268;48.188;17.134;2024-03-25T05:27:28;7.50;99.90
12408;DHT22;6268;48.188;17.134;2024-03-25T05:30:49;7.60;99.90
12408;DHT22;6268;48.188;17.134;2024-03-25T05:34:22;7.80;99.90
12408;DHT22;6268;48.188;17.134;2024-03-25T05:37:41;8.00;99.90
12408;DHT22;6268;48.188;17.134;2024-03-25T05:41:00;8.10;99.90
12408;DHT22;6268;48.188;17.134;2024-03-25T05:44:19;8.20;99.90
12408;DHT22;6268;48.188;17.134;2024-03-25T05:47:40;8.30;99.90
12408;DHT22;6268;48.188;17.134;2024-03-25T05:51:00;8.30;99.90
12408;DHT22;6268;48.188;17.134;2024-03-25T05:54:19;8.30;99.90
12408;DHT22;6268;48.188;17.134;2024-03-25T05:57:39;8.40;99.90
12408;DHT22;6268;48.188;17.134;2024-03-25T06:00:58;8.60;99.90
12408;DHT22;6268;48.188;17.134;2024-03-25T06:04:19;8.70;99.90
12408;DHT22;6268;48.188;17.134;2024-03-25T06:07:38;8.70;99.90
12408;DHT22;6268;48.188;17.134;2024-03-25T06:11:00;8.70;99.90
12408;DHT22;6268;48.188;17.134;2024-03-25T06:14:20;8.60;99.90
12408;DHT22;6268;48.188;17.134;2024-03-25T06:17:39;8.60;99.90
12408;DHT22;6268;48.188;17.134;2024-03-25T06:21:00;8.60;99.90
12408;DHT22;6268;48.188;17.134;2024-03-25T06:24:19;8.60;99.90
12408;DHT22;6268;48.188;17.134;2024-03-25T06:27:38;8.70;99.90
12408;DHT22;6268;48.188;17.134;2024-03-25T06:30:57;8.80;99.90
12408;DHT22;6268;48.188;17.134;2024-03-25T06:34:35;8.70;99.90
12408;DHT22;6268;48.188;17.134;2024-03-25T06:37:56;8.60;99.90
12408;DHT22;6268;48.188;17.134;2024-03-25T06:41:16;8.60;99.90
12408;DHT22;6268;48.188;17.134;2024-03-25T06:44:35;8.50;99.90
12408;DHT22;6268;48.188;17.134;2024-03-25T06:47:54;8.40;99.90
12408;DHT22;6268;48.188;17.134;2024-03-25T06:51:13;8.40;99.90
12408;DHT22;6268;48.188;17.134;2024-03-25T06:54:35;8.40;99.90
12408;DHT22;6268;48.188;17.134;2024-03-25T06:57:54;8.40;99.90
12408;DHT22;6268;48.188;17.134;2024-03-25T07:01:13;8.40;99.90
12408;DHT22;6268;48.188;17.134;2024-03-25T07:04:32;8.70;99.90
12408;DHT22;6268;48.188;17.134;2024-03-25T07:07:52;9.50;99.90
12408;DHT22;6268;48.188;17.134;2024-03-25T07:11:13;9.80;99.90
12408;DHT22;6268;48.188;17.134;2024-03-25T07:14:33;9.70;99.90
12408;DHT22;6268;48.188;17.134;2024-03-25T07:17:52;9.60;99.90
12408;DHT22;6268;48.188;17.134;2024-03-25T07:21:11;9.50;99.90
12408;DHT22;6268;48.188;17.134;2024-03-25T07:24:31;9.50;99.90
12408;DHT22;6268;48.188;17.134;2024-03-25T07:27:52;9.50;99.90
12408;DHT22;6268;48.188;17.134;2024-03-25T07:31:11;9.40;99.90
12408;DHT22;6268;48.188;17.134;2024-03-25T07:34:31;9.30;99.90
12408;DHT22;6268;48.188;17.134;2024-03-25T07:37:51;9.20;99.90
12408;DHT22;6268;48.188;17.134;2024-03-25T07:41:10;9.10;99.90
12408;DHT22;6268;48.188;17.134;2024-03-25T07:44:31;9.10;99.90
12408;DHT22;6268;48.188;17.134;2024-03-25T07:47:51;9.20;99.90
12408;DHT22;6268;48.188;17.134;2024-03-25T07:51:10;9.30;99.90
12408;DHT22;6268;48.188;17.134;2024-03-25T07:54:29;9.40;99.90
12408;DHT22;6268;48.188;17.134;2024-03-25T07:57:49;9.50;99.90
12408;DHT22;6268;48.188;17.134;2024-03-25T08:01:10;9.60;99.90
12408;DHT22;6268;48.188;17.134;2024-03-25T08:04:29;9.70;99.90
12408;DHT22;6268;48.188;17.134;2024-03-25T08:07:48;9.70;99.90
12408;DHT22;6268;48.188;17.134;2024-03-25T08:11:08;9.70;99.90
12408;DHT22;6268;48.188;17.134;2024-03-25T08:14:27;9.70;99.90
12408;DHT22;6268;48.188;17.134;2024-03-25T08:17:48;9.70;99.90
12408;DHT22;6268;48.188;17.134;2024-03-25T08:21:07;9.80;99.90
12408;DHT22;6268;48.188;17.134;2024-03-25T08:24:26;9.90;99.90
12408;DHT22;6268;48.188;17.134;2024-03-25T08:27:46;10.20;99.90
12408;DHT22;6268;48.188;17.134;2024-03-25T08:31:05;11.00;99.00
12408;DHT22;6268;48.188;17.134;2024-03-25T08:34:26;12.40;95.70
12408;DHT22;6268;48.188;17.134;2024-03-25T08:37:45;13.40;90.30
12408;DHT22;6268;48.188;17.134;2024-03-25T08:41:05;14.10;84.10
12408;DHT22;6268;48.188;17.134;2024-03-25T08:44:24;15.00;79.10
12408;DHT22;6268;48.188;17.134;2024-03-25T08:47:43;15.80;73.10
12408;DHT22;6268;48.188;17.134;2024-03-25T08:51:05;16.00;69.00
12408;DHT22;6268;48.188;17.134;2024-03-25T08:54:24;16.30;68.00
12408;DHT22;6268;48.188;17.134;2024-03-25T08:57:43;16.30;65.50
12408;DHT22;6268;48.188;17.134;2024-03-25T09:01:03;16.20;64.80
12408;DHT22;6268;48.188;17.134;2024-03-25T09:04:22;16.80;65.50
12408;DHT22;6268;48.188;17.134;2024-03-25T09:07:44;17.40;61.30
12408;DHT22;6268;48.188;17.134;2024-03-25T09:11:03;17.10;59.60
12408;DHT22;6268;48.188;17.134;2024-03-25T09:14:22;16.10;60.50
12408;DHT22;6268;48.188;17.134;2024-03-25T09:17:42;16.20;62.10
12408;DHT22;6268;48.188;17.134;2024-03-25T09:21:01;16.30;61.30
12408;DHT22;6268;48.188;17.134;2024-03-25T09:24:22;16.20;62.60
12408;DHT22;6268;48.188;17.134;2024-03-25T09:27:45;16.40;61.80
12408;DHT22;6268;48.188;17.134;2024-03-25T09:31:04;17.20;61.80
12408;DHT22;6268;48.188;17.134;2024-03-25T09:34:24;17.90;59.40
12408;DHT22;6268;48.188;17.134;2024-03-25T09:37:43;18.10;57.70
12408;DHT22;6268;48.188;17.134;2024-03-25T09:41:04;18.10;58.00
12408;DHT22;6268;48.188;17.134;2024-03-25T09:44:25;18.30;57.70
12408;DHT22;6268;48.188;17.134;2024-03-25T09:47:46;18.30;57.10
12408;DHT22;6268;48.188;17.134;2024-03-25T09:51:06;18.10;56.80
12408;DHT22;6268;48.188;17.134;2024-03-25T09:54:26;17.60;56.60
12408;DHT22;6268;48.188;17.134;2024-03-25T09:57:47;17.10;57.90
12408;DHT22;6268;48.188;17.134;2024-03-25T10:01:08;16.50;58.00
12408;DHT22;6268;48.188;17.134;2024-03-25T10:04:28;16.40;59.10
12408;DHT22;6268;48.188;17.134;2024-03-25T10:07:47;16.60;58.50
12408;DHT22;6268;48.188;17.134;2024-03-25T10:11:06;16.50;57.70
12408;DHT22;6268;48.188;17.134;2024-03-25T10:14:27;16.30;58.50
12408;DHT22;6268;48.188;17.134;2024-03-25T10:17:49;15.80;58.50
12408;DHT22;6268;48.188;17.134;2024-03-25T10:21:10;15.40;59.20
12408;DHT22;6268;48.188;17.134;2024-03-25T10:24:40;15.50;60.30
12408;DHT22;6268;48.188;17.134;2024-03-25T10:28:00;15.80;58.70
12408;DHT22;6268;48.188;17.134;2024-03-25T10:31:28;16.30;59.10
12408;DHT22;6268;48.188;17.134;2024-03-25T10:34:47;16.70;56.80
12408;DHT22;6268;48.188;17.134;2024-03-25T10:38:09;17.00;57.20
12408;DHT22;6268;48.188;17.134;2024-03-25T10:41:31;16.80;56.10
12408;DHT22;6268;48.188;17.134;2024-03-25T10:44:51;16.50;56.20
12408;DHT22;6268;48.188;17.134;2024-03-25T10:48:17;16.30;57.20
12408;DHT22;6268;48.188;17.134;2024-03-25T10:51:42;15.80;59.50
12408;DHT22;6268;48.188;17.134;2024-03-25T10:55:04;14.90;65.10
12408;DHT22;6268;48.188;17.134;2024-03-25T10:58:25;14.60;63.70
12408;DHT22;6268;48.188;17.134;2024-03-25T11:01:46;14.60;63.10
12408;DHT22;6268;48.188;17.134;2024-03-25T11:05:08;14.40;64.00
12408;DHT22;6268;48.188;17.134;2024-03-25T11:08:31;14.40;64.30
12408;DHT22;6268;48.188;17.134;2024-03-25T11:11:52;14.30;65.30
12408;DHT22;6268;48.188;17.134;2024-03-25T11:15:11;14.20;65.20
12408;DHT22;6268;48.188;17.134;2024-03-25T11:18:32;14.20;66.00
12408;DHT22;6268;48.188;17.134;2024-03-25T11:21:54;14.60;67.30
12408;DHT22;6268;48.188;17.134;2024-03-25T11:25:14;15.20;66.00
12408;DHT22;6268;48.188;17.134;2024-03-25T11:28:43;15.50;64.70
12408;DHT22;6268;48.188;17.134;2024-03-25T11:32:04;15.90;62.10
12408;DHT22;6268;48.188;17.134;2024-03-25T11:35:24;16.10;59.40
12408;DHT22;6268;48.188;17.134;2024-03-25T11:38:46;16.20;58.90
12408;DHT22;6268;48.188;17.134;2024-03-25T11:42:05;16.40;56.00
12408;DHT22;6268;48.188;17.134;2024-03-25T11:45:27;16.20;55.70
12408;DHT22;6268;48.188;17.134;2024-03-25T11:48:50;15.90;55.00
12408;DHT22;6268;48.188;17.134;2024-03-25T11:52:10;15.50;55.50
12408;DHT22;6268;48.188;17.134;2024-03-25T11:55:31;15.50;56.00
12408;DHT22;6268;48.188;17.134;2024-03-25T11:58:51;15.70;57.20
12408;DHT22;6268;48.188;17.134;2024-03-25T12:02:11;15.70;56.90
12408;DHT22;6268;48.188;17.134;2024-03-25T12:05:33;15.60;57.30
12408;DHT22;6268;48.188;17.134;2024-03-25T12:08:52;15.50;57.00
12408;DHT22;6268;48.188;17.134;2024-03-25T12:12:32;15.50;57.40
12408;DHT22;6268;48.188;17.134;2024-03-25T12:15:52;15.40;56.20
12408;DHT22;6268;48.188;17.134;2024-03-25T12:19:11;15.20;56.00
12408;DHT22;6268;48.188;17.134;2024-03-25T12:22:34;15.20;55.50
12408;DHT22;6268;48.188;17.134;2024-03-25T12:25:58;15.10;56.60
12408;DHT22;6268;48.188;17.134;2024-03-25T12:29:19;15.10;60.60
12408;DHT22;6268;48.188;17.134;2024-03-25T12:32:40;14.80;68.60
12408;DHT22;6268;48.188;17.134;2024-03-25T12:36:06;14.30;73.50
12408;DHT22;6268;48.188;17.134;2024-03-25T12:39:27;14.00;79.80
12408;DHT22;6268;48.188;17.134;2024-03-25T12:42:53;14.00;84.10
12408;DHT22;6268;48.188;17.134;2024-03-25T12:46:14;14.00;90.00
12408;DHT22;6268;48.188;17.134;2024-03-25T12:49:33;14.00;88.50
12408;DHT22;6268;48.188;17.134;2024-03-25T12:52:53;14.00;87.90
12408;DHT22;6268;48.188;17.134;2024-03-25T12:56:12;14.00;84.60
12408;DHT22;6268;48.188;17.134;2024-03-25T12:59:31;14.10;83.60
12408;DHT22;6268;48.188;17.134;2024-03-25T13:02:52;14.20;84.10
12408;DHT22;6268;48.188;17.134;2024-03-25T13:06:12;14.30;83.40
12408;DHT22;6268;48.188;17.134;2024-03-25T13:09:32;14.40;83.10
12408;DHT22;6268;48.188;17.134;2024-03-25T13:12:51;14.40;77.90
12408;DHT22;6268;48.188;17.134;2024-03-25T13:16:11;14.30;78.30
12408;DHT22;6268;48.188;17.134;2024-03-25T13:19:32;14.30;75.70
12408;DHT22;6268;48.188;17.134;2024-03-25T13:22:54;14.20;75.90
12408;DHT22;6268;48.188;17.134;2024-03-25T13:26:13;14.10;76.90
12408;DHT22;6268;48.188;17.134;2024-03-25T13:29:32;14.10;74.30
12408;DHT22;6268;48.188;17.134;2024-03-25T13:33:01;14.20;74.80
12408;DHT22;6268;48.188;17.134;2024-03-25T13:36:22;14.10;72.10
12408;DHT22;6268;48.188;17.134;2024-03-25T13:39:41;14.10;72.40
12408;DHT22;6268;48.188;17.134;2024-03-25T13:43:01;14.20;70.50
12408;DHT22;6268;48.188;17.134;2024-03-25T13:46:20;14.10;69.60
12408;DHT22;6268;48.188;17.134;2024-03-25T13:49:39;14.20;69.20
12408;DHT22;6268;48.188;17.134;2024-03-25T13:53:00;14.20;67.30
12408;DHT22;6268;48.188;17.134;2024-03-25T13:56:20;14.20;64.80
12408;DHT22;6268;48.188;17.134;2024-03-25T13:59:39;14.10;63.00
12408;DHT22;6268;48.188;17.134;2024-03-25T14:02:58;14.20;62.40
12408;DHT22;6268;48.188;17.134;2024-03-25T14:06:18;14.20;61.00
12408;DHT22;6268;48.188;17.134;2024-03-25T14:09:39;14.20;59.00
12408;DHT22;6268;48.188;17.134;2024-03-25T14:12:58;14.10;58.20
12408;DHT22;6268;48.188;17.134;2024-03-25T14:16:18;14.20;59.50
12408;DHT22;6268;48.188;17.134;2024-03-25T14:19:37;14.30;58.70
12408;DHT22;6268;48.188;17.134;2024-03-25T14:22:56;14.30;58.00
12408;DHT22;6268;48.188;17.134;2024-03-25T14:26:18;14.30;57.80
12408;DHT22;6268;48.188;17.134;2024-03-25T14:29:38;14.40;59.20
12408;DHT22;6268;48.188;17.134;2024-03-25T14:32:57;14.50;57.40
12408;DHT22;6268;48.188;17.134;2024-03-25T14:36:17;14.50;56.20
12408;DHT22;6268;48.188;17.134;2024-03-25T14:39:36;14.20;56.70
12408;DHT22;6268;48.188;17.134;2024-03-25T14:42:57;14.00;56.80
12408;DHT22;6268;48.188;17.134;2024-03-25T14:46:16;13.90;57.60
12408;DHT22;6268;48.188;17.134;2024-03-25T14:49:36;13.90;58.30
12408;DHT22;6268;48.188;17.134;2024-03-25T14:52:55;13.90;58.40
12408;DHT22;6268;48.188;17.134;2024-03-25T14:56:15;13.90;57.70
12408;DHT22;6268;48.188;17.134;2024-03-25T14:59:36;14.00;58.50
12408;DHT22;6268;48.188;17.134;2024-03-25T15:02:55;14.00;58.10
12408;DHT22;6268;48.188;17.134;2024-03-25T15:06:15;13.90;57.30
12408;DHT22;6268;48.188;17.134;2024-03-25T15:09:34;13.80;56.50
12408;DHT22;6268;48.188;17.134;2024-03-25T15:12:53;13.80;61.70
12408;DHT22;6268;48.188;17.134;2024-03-25T15:16:14;13.80;63.70
12408;DHT22;6268;48.188;17.134;2024-03-25T15:19:34;13.80;58.50
12408;DHT22;6268;48.188;17.134;2024-03-25T15:22:53;13.80;57.80
12408;DHT22;6268;48.188;17.134;2024-03-25T15:26:12;13.70;57.80
12408;DHT22;6268;48.188;17.134;2024-03-25T15:29:32;13.70;57.00
12408;DHT22;6268;48.188;17.134;2024-03-25T15:32:53;13.60;56.70
12408;DHT22;6268;48.188;17.134;2024-03-25T15:36:13;13.60;57.40
12408;DHT22;6268;48.188;17.134;2024-03-25T15:39:32;13.60;57.80
12408;DHT22;6268;48.188;17.134;2024-03-25T15:42:52;13.50;57.20
12408;DHT22;6268;48.188;17.134;2024-03-25T15:46:11;13.50;57.30
12408;DHT22;6268;48.188;17.134;2024-03-25T15:49:32;13.40;57.40
12408;DHT22;6268;48.188;17.134;2024-03-25T15:52:51;13.40;56.60
12408;DHT22;6268;48.188;17.134;2024-03-25T15:56:11;13.40;57.10
12408;DHT22;6268;48.188;17.134;2024-03-25T15:59:30;13.40;56.80
12408;DHT22;6268;48.188;17.134;2024-03-25T16:02:50;13.40;56.70
12408;DHT22;6268;48.188;17.134;2024-03-25T16:06:11;13.30;56.60
12408;DHT22;6268;48.188;17.134;2024-03-25T16:09:30;13.20;56.60
12408;DHT22;6268;48.188;17.134;2024-03-25T16:12:50;13.20;56.30
12408;DHT22;6268;48.188;17.134;2024-03-25T16:16:10;13.20;57.10
12408;DHT22;6268;48.188;17.134;2024-03-25T16:19:29;13.20;57.50
12408;DHT22;6268;48.188;17.134;2024-03-25T16:22:50;13.20;57.50
12408;DHT22;6268;48.188;17.134;2024-03-25T16:26:09;13.20;56.80
12408;DHT22;6268;48.188;17.134;2024-03-25T16:29:29;13.20;57.10
12408;DHT22;6268;48.188;17.134;2024-03-25T16:32:48;13.10;57.00
12408;DHT22;6268;48.188;17.134;2024-03-25T16:36:08;13.00;57.80
12408;DHT22;6268;48.188;17.134;2024-03-25T16:39:28;12.90;57.40
12408;DHT22;6268;48.188;17.134;2024-03-25T16:42:48;12.80;58.10
12408;DHT22;6268;48.188;17.134;2024-03-25T16:46:07;12.80;57.70
12408;DHT22;6268;48.188;17.134;2024-03-25T16:49:26;12.80;62.30
12408;DHT22;6268;48.188;17.134;2024-03-25T16:52:46;12.70;60.30
12408;DHT22;6268;48.188;17.134;2024-03-25T16:56:08;12.70;59.00
12408;DHT22;6268;48.188;17.134;2024-03-25T16:59:27;12.70;58.00
12408;DHT22;6268;48.188;17.134;2024-03-25T17:02:46;12.70;58.50
12408;DHT22;6268;48.188;17.134;2024-03-25T17:06:06;12.60;58.20
12408;DHT22;6268;48.188;17.134;2024-03-25T17:09:25;12.50;58.20
12408;DHT22;6268;48.188;17.134;2024-03-25T17:12:46;12.50;58.20
12408;DHT22;6268;48.188;17.134;2024-03-25T17:16:06;12.40;59.30
12408;DHT22;6268;48.188;17.134;2024-03-25T17:19:25;12.40;59.90
12408;DHT22;6268;48.188;17.134;2024-03-25T17:22:45;12.20;60.90
12408;DHT22;6268;48.188;17.134;2024-03-25T17:26:05;12.20;60.60
12408;DHT22;6268;48.188;17.134;2024-03-25T17:29:26;12.10;61.80
12408;DHT22;6268;48.188;17.134;2024-03-25T17:32:45;12.00;61.70
12408;DHT22;6268;48.188;17.134;2024-03-25T17:36:07;11.90;62.30
12408;DHT22;6268;48.188;17.134;2024-03-25T17:39:27;11.70;63.00
12408;DHT22;6268;48.188;17.134;2024-03-25T17:42:46;11.70;62.70
12408;DHT22;6268;48.188;17.134;2024-03-25T17:46:07;11.60;62.80
12408;DHT22;6268;48.188;17.134;2024-03-25T17:49:27;11.50;63.00
12408;DHT22;6268;48.188;17.134;2024-03-25T17:52:47;11.50;63.50
12408;DHT22;6268;48.188;17.134;2024-03-25T17:56:06;11.40;64.00
12408;DHT22;6268;48.188;17.134;2024-03-25T17:59:28;11.30;64.90
12408;DHT22;6268;48.188;17.134;2024-03-25T18:02:49;11.20;65.40
12408;DHT22;6268;48.188;17.134;2024-03-25T18:06:08;11.10;66.00
12408;DHT22;6268;48.188;17.134;2024-03-25T18:09:28;11.00;66.40
12408;DHT22;6268;48.188;17.134;2024-03-25T18:12:47;10.90;66.60
12408;DHT22;6268;48.188;17.134;2024-03-25T18:16:06;10.80;65.20
12408;DHT22;6268;48.188;17.134;2024-03-25T18:19:39;10.70;65.30
12408;DHT22;6268;48.188;17.134;2024-03-25T18:22:58;10.70;65.50
12408;DHT22;6268;48.188;17.134;2024-03-25T18:26:18;10.60;66.40
12408;DHT22;6268;48.188;17.134;2024-03-25T18:29:37;10.50;66.60
12408;DHT22;6268;48.188;17.134;2024-03-25T18:32:56;10.50;67.40
12408;DHT22;6268;48.188;17.134;2024-03-25T18:36:19;10.40;67.50
12408;DHT22;6268;48.188;17.134;2024-03-25T18:39:40;10.30;68.40
12408;DHT22;6268;48.188;17.134;2024-03-25T18:42:59;10.20;69.30
12408;DHT22;6268;48.188;17.134;2024-03-25T18:46:19;10.30;69.30
12408;DHT22;6268;48.188;17.134;2024-03-25T18:49:38;10.20;68.40
12408;DHT22;6268;48.188;17.134;2024-03-25T18:53:03;10.10;70.20
12408;DHT22;6268;48.188;17.134;2024-03-25T18:56:23;9.60;74.20
12408;DHT22;6268;48.188;17.134;2024-03-25T18:59:42;9.50;75.10
12408;DHT22;6268;48.188;17.134;2024-03-25T19:03:03;9.60;74.90
12408;DHT22;6268;48.188;17.134;2024-03-25T19:06:22;9.70;75.70
12408;DHT22;6268;48.188;17.134;2024-03-25T19:09:43;9.70;75.70
12408;DHT22;6268;48.188;17.134;2024-03-25T19:13:02;9.70;75.80
12408;DHT22;6268;48.188;17.134;2024-03-25T19:16:22;9.60;76.30
12408;DHT22;6268;48.188;17.134;2024-03-25T19:19:41;9.70;76.70
12408;DHT22;6268;48.188;17.134;2024-03-25T19:23:01;9.70;76.60
12408;DHT22;6268;48.188;17.134;2024-03-25T19:26:22;9.70;77.20
12408;DHT22;6268;48.188;17.134;2024-03-25T19:29:41;9.70;78.70
12408;DHT22;6268;48.188;17.134;2024-03-25T19:33:01;9.70;79.20
12408;DHT22;6268;48.188;17.134;2024-03-25T19:36:20;9.80;78.70
12408;DHT22;6268;48.188;17.134;2024-03-25T19:39:40;9.70;79.80
12408;DHT22;6268;48.188;17.134;2024-03-25T19:43:01;9.70;80.80
12408;DHT22;6268;48.188;17.134;2024-03-25T19:46:20;9.60;81.80
12408;DHT22;6268;48.188;17.134;2024-03-25T19:49:40;9.50;83.00
12408;DHT22;6268;48.188;17.134;2024-03-25T19:52:59;9.50;85.60
12408;DHT22;6268;48.188;17.134;2024-03-25T19:56:18;9.50;86.00
12408;DHT22;6268;48.188;17.134;2024-03-25T19:59:39;9.50;86.80
12408;DHT22;6268;48.188;17.134;2024-03-25T20:02:59;9.40;88.10
12408;DHT22;6268;48.188;17.134;2024-03-25T20:06:18;9.40;89.00
12408;DHT22;6268;48.188;17.134;2024-03-25T20:09:38;9.30;90.20
12408;DHT22;6268;48.188;17.134;2024-03-25T20:12:57;9.20;91.00
12408;DHT22;6268;48.188;17.134;2024-03-25T20:16:19;9.10;91.80
12408;DHT22;6268;48.188;17.134;2024-03-25T20:19:38;9.00;92.70
12408;DHT22;6268;48.188;17.134;2024-03-25T20:22:57;9.00;93.20
12408;DHT22;6268;48.188;17.134;2024-03-25T20:26:17;9.00;93.50
12408;DHT22;6268;48.188;17.134;2024-03-25T20:29:36;9.10;95.60
12408;DHT22;6268;48.188;17.134;2024-03-25T20:32:58;9.00;97.20
12408;DHT22;6268;48.188;17.134;2024-03-25T20:36:18;9.00;97.20
12408;DHT22;6268;48.188;17.134;2024-03-25T20:39:37;8.90;97.20
12408;DHT22;6268;48.188;17.134;2024-03-25T20:42:56;8.90;97.90
12408;DHT22;6268;48.188;17.134;2024-03-25T20:46:16;8.80;98.20
12408;DHT22;6268;48.188;17.134;2024-03-25T20:49:37;8.70;98.80
12408;DHT22;6268;48.188;17.134;2024-03-25T20:52:56;8.70;99.90
12408;DHT22;6268;48.188;17.134;2024-03-25T20:56:15;8.80;99.90
12408;DHT22;6268;48.188;17.134;2024-03-25T20:59:35;8.70;99.90
12408;DHT22;6268;48.188;17.134;2024-03-25T21:02:55;8.60;99.90
12408;DHT22;6268;48.188;17.134;2024-03-25T21:06:15;8.50;99.90
12408;DHT22;6268;48.188;17.134;2024-03-25T21:09:35;8.40;99.90
12408;DHT22;6268;48.188;17.134;2024-03-25T21:12:54;8.40;99.90
12408;DHT22;6268;48.188;17.134;2024-03-25T21:16:14;8.30;99.90